Wampum, Pennsylvania
Current Conditions -  °F | °C
As of 8:47 PM on Monday 26 Jan 2015 (Local Time) from KBVI Reporting Station
Overcast Overcast  
Wind Chill: 13°   Ceiling: 1100
Heat Index: 19°   Visibility: 10mi
Dew Point: 18°   Wind: 5mph
Humidity: 93%   Direction: 330°NNW
Pressure: 29.84"   Gusts: NA
Location:  40.89°N, 80.34°W
Report Text: KBVI 270147Z 33004KT 10SM OVC011 M07/M08 A2984 RMK LAST
Loading
Personal Weather Stations






























Interactive Weather Map New forecast layout! Learn more

10-Day Weather Forecast

Advertisements
Track Severe Weather on mobile